Time;durP1;ratioP1;P1;durP2;ratioP2;P2;SDS_P1;SDS_P2;PMS_P1;PMS_P2;Temp;Humidity;BMP_temperature;BMP_pressure;BME280_temperature;BME280_humidity;BME280_pressure;Samples;Min_cycle;Max_cycle;Signal;HPM_P1;HPM_P2
2022/10/05 00:00:14;;;;;;;5.67;3.57;;;;;;;;;;5138788;27;20733;-69
2022/10/05 00:02:41;;;;;;;6.10;3.87;;;;;;;;;;5138221;27;20885;-69
2022/10/05 00:05:14;;;;;;;6.73;3.90;;;;;;;;;;5138304;27;20445;-68
2022/10/05 00:07:41;;;;;;;10.90;4.73;;;;;;;;;;5138013;27;20946;-68
2022/10/05 00:10:14;;;;;;;6.20;3.40;;;;;;;;;;5138510;27;20489;-69
2022/10/05 00:12:44;;;;;;;10.20;4.07;;;;;;;;;;5138558;27;20648;-69
2022/10/05 00:15:12;;;;;;;6.80;3.90;;;;;;;;;;5137884;27;20480;-69
2022/10/05 00:17:41;;;;;;;9.10;4.00;;;;;;;;;;5138556;27;20526;-69
2022/10/05 00:20:16;;;;;;;10.63;4.07;;;;;;;;;;5137928;27;20524;-69
2022/10/05 00:22:43;;;;;;;4.97;3.60;;;;;;;;;;5137677;27;20461;-69
2022/10/05 00:25:12;;;;;;;6.40;3.83;;;;;;;;;;5138320;27;20859;-71
2022/10/05 00:27:40;;;;;;;4.83;3.30;;;;;;;;;;5138597;27;20481;-69
2022/10/05 00:30:13;;;;;;;4.93;3.57;;;;;;;;;;5137591;27;20492;-69
2022/10/05 00:32:41;;;;;;;5.77;4.37;;;;;;;;;;5138158;27;20465;-69
2022/10/05 00:35:08;;;;;;;6.60;4.23;;;;;;;;;;5137935;27;20450;-68
2022/10/05 00:37:38;;;;;;;5.70;4.00;;;;;;;;;;5137971;27;20453;-69
2022/10/05 00:40:09;;;;;;;7.10;3.80;;;;;;;;;;5138755;27;20518;-69
2022/10/05 00:42:44;;;;;;;7.77;3.90;;;;;;;;;;5138227;27;20457;-69
2022/10/05 00:45:13;;;;;;;7.50;4.23;;;;;;;;;;5137868;27;20455;-69
2022/10/05 00:47:44;;;;;;;6.10;3.90;;;;;;;;;;5138003;27;20457;-69
2022/10/05 00:50:27;;;;;;;8.80;4.10;;;;;;;;;;5138103;27;20528;-69
2022/10/05 00:52:57;;;;;;;7.43;3.83;;;;;;;;;;5137247;27;20936;-69
2022/10/05 00:55:29;;;;;;;6.20;3.63;;;;;;;;;;5137932;27;20453;-69
2022/10/05 00:58:03;;;;;;;7.70;4.00;;;;;;;;;;5137699;27;20442;-68
2022/10/05 01:00:33;;;;;;;8.97;4.30;;;;;;;;;;5138132;27;20446;-69
2022/10/05 01:03:03;;;;;;;7.37;4.13;;;;;;;;;;5137494;27;20458;-69
2022/10/05 01:05:41;;;;;;;6.30;4.30;;;;;;;;;;5137694;27;20450;-68
2022/10/05 01:08:13;;;;;;;5.73;3.43;;;;;;;;;;5137702;27;20456;-68
2022/10/05 01:10:45;;;;;;;5.83;4.13;;;;;;;;;;5137151;27;20490;-68
2022/10/05 01:13:15;;;;;;;11.07;3.70;;;;;;;;;;5137540;27;20624;-68
2022/10/05 01:15:53;;;;;;;5.37;3.80;;;;;;;;;;5137203;27;20481;-68
2022/10/05 01:18:25;;;;;;;13.43;4.10;;;;;;;;;;5137304;27;20750;-70
2022/10/05 01:20:56;;;;;;;7.63;3.83;;;;;;;;;;5137291;27;21478;-68
2022/10/05 01:23:33;;;;;;;6.80;4.27;;;;;;;;;;5137241;27;20445;-68
2022/10/05 01:26:13;;;;;;;6.83;4.50;;;;;;;;;;5137380;27;20460;-70
2022/10/05 01:28:47;;;;;;;3.83;2.80;;;;;;;;;;5137111;27;20445;-70
2022/10/05 01:31:17;;;;;;;8.67;4.23;;;;;;;;;;5137056;27;20489;-69
2022/10/05 01:33:47;;;;;;;5.87;3.00;;;;;;;;;;5137634;27;20706;-69
2022/10/05 01:36:17;;;;;;;4.13;2.87;;;;;;;;;;5137074;27;20458;-69
2022/10/05 01:38:47;;;;;;;5.87;3.87;;;;;;;;;;5137705;27;20434;-69
2022/10/05 01:41:20;;;;;;;6.97;3.40;;;;;;;;;;5137535;27;20462;-69
2022/10/05 01:43:49;;;;;;;6.10;3.87;;;;;;;;;;5137787;27;20540;-69
2022/10/05 01:46:22;;;;;;;6.63;2.90;;;;;;;;;;5137349;27;20481;-68
2022/10/05 01:48:54;;;;;;;10.20;3.57;;;;;;;;;;5137134;27;20529;-69
2022/10/05 01:51:26;;;;;;;7.03;3.90;;;;;;;;;;5124312;27;20589;-70
2022/10/05 01:54:00;;;;;;;7.93;3.63;;;;;;;;;;5114835;28;20443;-70
2022/10/05 01:56:31;;;;;;;6.83;3.10;;;;;;;;;;5114987;28;20515;-69
2022/10/05 01:59:05;;;;;;;3.40;2.70;;;;;;;;;;5115053;28;20479;-70
2022/10/05 02:01:35;;;;;;;6.93;3.20;;;;;;;;;;5115167;28;20466;-70
2022/10/05 02:04:05;;;;;;;4.07;3.10;;;;;;;;;;5114736;28;20450;-69
2022/10/05 02:06:33;;;;;;;7.23;3.30;;;;;;;;;;5113873;28;20454;-70
2022/10/05 02:09:04;;;;;;;7.03;3.37;;;;;;;;;;5114933;28;20496;-70
2022/10/05 02:11:33;;;;;;;8.87;3.50;;;;;;;;;;5114791;28;20487;-70
2022/10/05 02:14:03;;;;;;;4.10;2.70;;;;;;;;;;5116302;28;20442;-69
2022/10/05 02:16:33;;;;;;;5.10;3.17;;;;;;;;;;5116078;28;20607;-70
2022/10/05 02:19:02;;;;;;;6.10;3.70;;;;;;;;;;5115640;28;20541;-69
2022/10/05 02:21:31;;;;;;;8.30;4.50;;;;;;;;;;5116253;28;20550;-69
2022/10/05 02:24:03;;;;;;;4.83;3.50;;;;;;;;;;5116536;28;20733;-70
2022/10/05 02:26:31;;;;;;;6.53;3.90;;;;;;;;;;5116278;28;20462;-71
2022/10/05 02:29:00;;;;;;;5.50;3.60;;;;;;;;;;5121197;28;20462;-69
2022/10/05 02:31:30;;;;;;;8.10;3.80;;;;;;;;;;5136834;27;20584;-69
2022/10/05 02:34:11;;;;;;;6.80;5.60;;;;;;;;;;5136397;27;20514;-69
2022/10/05 02:36:40;;;;;;;6.43;3.80;;;;;;;;;;5135019;27;20461;-69
2022/10/05 02:39:12;;;;;;;5.53;3.37;;;;;;;;;;5135076;27;20445;-70
2022/10/05 02:41:44;;;;;;;5.30;3.30;;;;;;;;;;5130565;27;20573;-70
2022/10/05 02:44:17;;;;;;;5.70;2.90;;;;;;;;;;5118555;28;20447;-69
2022/10/05 02:46:58;;;;;;;7.43;3.53;;;;;;;;;;5114564;28;20454;-70
2022/10/05 02:49:28;;;;;;;6.70;4.07;;;;;;;;;;5114225;28;20500;-69
2022/10/05 02:51:58;;;;;;;5.20;4.40;;;;;;;;;;5114820;28;20533;-70
2022/10/05 02:54:42;;;;;;;6.53;3.07;;;;;;;;;;5114712;28;20467;-70
2022/10/05 02:57:15;;;;;;;7.57;3.37;;;;;;;;;;5114472;28;20461;-67
2022/10/05 02:59:44;;;;;;;9.20;4.87;;;;;;;;;;5124637;27;20469;-70
2022/10/05 03:02:13;;;;;;;4.40;3.40;;;;;;;;;;5136412;27;20536;-69
2022/10/05 03:04:43;;;;;;;7.93;3.50;;;;;;;;;;5135964;27;20442;-70
2022/10/05 03:07:14;;;;;;;9.90;4.17;;;;;;;;;;5134987;27;20553;-70
2022/10/05 03:09:44;;;;;;;5.87;4.00;;;;;;;;;;5134660;27;20541;-69
2022/10/05 03:12:17;;;;;;;6.90;3.87;;;;;;;;;;5134340;27;20647;-69
2022/10/05 03:14:49;;;;;;;4.80;3.50;;;;;;;;;;5134042;27;20449;-71
2022/10/05 03:17:18;;;;;;;4.73;3.33;;;;;;;;;;5136770;27;20532;-70
2022/10/05 03:20:03;;;;;;;6.17;3.43;;;;;;;;;;5138386;27;20461;-70
2022/10/05 03:22:38;;;;;;;6.30;3.87;;;;;;;;;;5137900;27;20445;-70
2022/10/05 03:25:15;;;;;;;8.97;3.40;;;;;;;;;;5137781;27;20617;-70
2022/10/05 03:27:45;;;;;;;5.30;3.53;;;;;;;;;;5137278;27;20528;-70
2022/10/05 03:30:14;;;;;;;5.10;3.60;;;;;;;;;;5137697;27;20493;-69
2022/10/05 03:32:46;;;;;;;5.37;3.70;;;;;;;;;;5137814;27;20909;-69
2022/10/05 03:35:15;;;;;;;7.00;3.70;;;;;;;;;;5137817;27;20450;-69
2022/10/05 03:37:47;;;;;;;7.70;4.27;;;;;;;;;;5137780;27;20437;-69
2022/10/05 03:40:20;;;;;;;5.17;3.80;;;;;;;;;;5134132;27;20462;-69
2022/10/05 03:42:52;;;;;;;7.73;4.20;;;;;;;;;;5129558;28;20453;-69
2022/10/05 03:45:24;;;;;;;5.50;3.50;;;;;;;;;;5131309;27;20477;-69
2022/10/05 03:47:55;;;;;;;6.30;3.90;;;;;;;;;;5138896;27;20683;-69
2022/10/05 03:50:25;;;;;;;6.50;3.63;;;;;;;;;;5137948;27;20570;-69
2022/10/05 03:52:56;;;;;;;6.63;4.10;;;;;;;;;;5139168;27;20441;-69
2022/10/05 03:55:27;;;;;;;11.70;4.13;;;;;;;;;;5138442;27;20465;-69
2022/10/05 03:57:56;;;;;;;7.13;4.40;;;;;;;;;;5138279;27;20472;-69
2022/10/05 04:00:24;;;;;;;7.27;3.70;;;;;;;;;;5117602;27;20451;-68
2022/10/05 04:02:54;;;;;;;5.53;3.60;;;;;;;;;;5120900;28;20482;-69
2022/10/05 04:05:24;;;;;;;8.33;4.10;;;;;;;;;;5134274;27;20489;-68
2022/10/05 04:07:55;;;;;;;9.73;4.47;;;;;;;;;;5129897;27;20539;-69
2022/10/05 04:10:25;;;;;;;6.53;4.63;;;;;;;;;;5125727;28;20482;-69
2022/10/05 04:12:55;;;;;;;8.67;3.87;;;;;;;;;;5123528;28;20466;-68
2022/10/05 04:15:28;;;;;;;10.03;4.53;;;;;;;;;;5134470;27;20819;-70
2022/10/05 04:17:58;;;;;;;5.97;4.20;;;;;;;;;;5120861;28;20451;-69
2022/10/05 04:20:26;;;;;;;9.03;3.80;;;;;;;;;;5116911;28;20491;-69
2022/10/05 04:22:56;;;;;;;6.60;3.63;;;;;;;;;;5117567;28;20798;-69
2022/10/05 04:25:25;;;;;;;6.00;4.30;;;;;;;;;;5116525;28;20877;-69
2022/10/05 04:27:55;;;;;;;6.57;3.60;;;;;;;;;;5116477;28;20485;-69
2022/10/05 04:30:22;;;;;;;7.00;4.13;;;;;;;;;;5116546;28;20581;-69
2022/10/05 04:32:52;;;;;;;6.70;5.10;;;;;;;;;;5119948;28;20459;-68
2022/10/05 04:35:34;;;;;;;6.07;4.30;;;;;;;;;;5123868;28;20498;-69
2022/10/05 04:38:06;;;;;;;8.70;4.20;;;;;;;;;;5123081;27;20775;-69
2022/10/05 04:40:39;;;;;;;7.03;3.57;;;;;;;;;;5116785;28;20733;-69
2022/10/05 04:43:09;;;;;;;6.23;4.40;;;;;;;;;;5116445;28;20494;-71
2022/10/05 04:45:45;;;;;;;7.13;3.87;;;;;;;;;;5117012;28;20511;-69
2022/10/05 04:48:21;;;;;;;5.80;4.07;;;;;;;;;;5116885;28;20461;-69
2022/10/05 04:50:52;;;;;;;6.03;4.30;;;;;;;;;;5118475;28;20570;-69
2022/10/05 04:53:27;;;;;;;7.30;4.17;;;;;;;;;;5136451;27;20456;-68
2022/10/05 04:55:58;;;;;;;11.70;5.07;;;;;;;;;;5135267;27;20445;-68
2022/10/05 04:58:34;;;;;;;9.60;4.30;;;;;;;;;;5135032;27;20533;-71
2022/10/05 05:01:14;;;;;;;8.70;4.73;;;;;;;;;;5132947;27;20482;-69
2022/10/05 05:03:49;;;;;;;7.37;4.00;;;;;;;;;;5116015;28;20743;-68
2022/10/05 05:06:25;;;;;;;27.77;8.33;;;;;;;;;;5115319;28;20446;-69
2022/10/05 05:09:05;;;;;;;8.00;4.33;;;;;;;;;;5116316;28;20454;-67
2022/10/05 05:11:40;;;;;;;6.90;4.23;;;;;;;;;;5115728;27;20489;-69
2022/10/05 05:14:18;;;;;;;11.83;5.47;;;;;;;;;;5123564;28;20465;-69
2022/10/05 05:16:52;;;;;;;8.13;4.43;;;;;;;;;;5126118;27;20819;-68
2022/10/05 05:19:29;;;;;;;8.67;4.80;;;;;;;;;;5132728;27;20454;-69
2022/10/05 05:22:02;;;;;;;11.70;4.40;;;;;;;;;;5131870;27;20518;-69
2022/10/05 05:24:34;;;;;;;9.10;5.87;;;;;;;;;;5131333;27;20561;-69
2022/10/05 05:27:11;;;;;;;13.53;4.50;;;;;;;;;;5133706;27;20446;-68
2022/10/05 05:29:44;;;;;;;8.80;4.80;;;;;;;;;;5113648;28;20463;-69
2022/10/05 05:32:17;;;;;;;10.13;3.80;;;;;;;;;;5118324;28;20491;-69
2022/10/05 05:34:50;;;;;;;7.70;4.00;;;;;;;;;;5128354;28;20491;-69
2022/10/05 05:37:24;;;;;;;5.87;3.77;;;;;;;;;;5123068;28;20545;-68
2022/10/05 05:39:57;;;;;;;10.70;4.50;;;;;;;;;;5112634;28;20524;-69
2022/10/05 05:42:31;;;;;;;7.17;5.03;;;;;;;;;;5114283;28;20863;-68
2022/10/05 05:45:00;;;;;;;8.17;5.03;;;;;;;;;;5115974;28;20821;-67
2022/10/05 05:47:33;;;;;;;8.60;4.80;;;;;;;;;;5123961;27;20527;-69
2022/10/05 05:50:09;;;;;;;5.20;4.03;;;;;;;;;;5113236;27;20940;-68
2022/10/05 05:52:39;;;;;;;22.90;5.70;;;;;;;;;;5119810;27;20445;-68
2022/10/05 05:55:12;;;;;;;6.50;4.17;;;;;;;;;;5110961;28;20784;-69
2022/10/05 05:57:41;;;;;;;8.90;4.50;;;;;;;;;;5112642;28;20493;-69
2022/10/05 06:00:18;;;;;;;7.90;4.80;;;;;;;;;;5128651;27;20457;-70
2022/10/05 06:02:48;;;;;;;8.60;5.30;;;;;;;;;;5113549;28;20466;-69
2022/10/05 06:05:30;;;;;;;9.37;4.40;;;;;;;;;;5118555;27;20471;-69
2022/10/05 06:07:58;;;;;;;7.13;3.87;;;;;;;;;;5124726;27;21246;-70
2022/10/05 06:10:30;;;;;;;8.60;4.20;;;;;;;;;;5121448;27;20517;-69
2022/10/05 06:13:00;;;;;;;5.73;4.10;;;;;;;;;;5114216;28;20874;-68
2022/10/05 06:15:30;;;;;;;7.67;4.33;;;;;;;;;;5121997;27;20501;-69
2022/10/05 06:18:10;;;;;;;14.40;6.70;;;;;;;;;;5113540;27;20574;-71
2022/10/05 06:20:54;;;;;;;5.70;4.10;;;;;;;;;;5121552;27;20525;-71
2022/10/05 06:23:28;;;;;;;7.30;4.40;;;;;;;;;;5114921;28;20615;-74
2022/10/05 06:26:06;;;;;;;6.07;3.93;;;;;;;;;;5123448;28;20466;-74
2022/10/05 06:28:36;;;;;;;5.83;3.40;;;;;;;;;;5133758;27;20478;-74
2022/10/05 06:31:07;;;;;;;15.97;7.47;;;;;;;;;;5124007;27;20489;-74
2022/10/05 06:33:46;;;;;;;15.60;5.50;;;;;;;;;;5114675;28;20486;-72
2022/10/05 06:36:18;;;;;;;10.20;5.90;;;;;;;;;;5116635;28;20767;-75
2022/10/05 06:38:53;;;;;;;11.80;6.00;;;;;;;;;;5113702;28;20510;-76
2022/10/05 06:41:26;;;;;;;5.80;4.37;;;;;;;;;;5126946;27;20500;-68
2022/10/05 06:43:57;;;;;;;12.67;5.80;;;;;;;;;;5133360;27;20522;-68
2022/10/05 06:46:26;;;;;;;9.63;5.03;;;;;;;;;;5118938;27;20462;-71
2022/10/05 06:49:11;;;;;;;11.13;4.10;;;;;;;;;;5122489;28;20520;-71
2022/10/05 06:51:44;;;;;;;22.53;7.87;;;;;;;;;;5124406;27;20474;-69
2022/10/05 06:54:17;;;;;;;12.20;6.07;;;;;;;;;;5116656;28;20850;-69
2022/10/05 06:56:48;;;;;;;9.77;5.10;;;;;;;;;;5127660;27;20496;-69
2022/10/05 06:59:19;;;;;;;27.10;9.90;;;;;;;;;;5133289;27;20549;-70
2022/10/05 07:01:50;;;;;;;5.80;3.73;;;;;;;;;;5125546;27;20539;-72
2022/10/05 07:04:36;;;;;;;6.60;4.57;;;;;;;;;;5128103;28;20472;-72
2022/10/05 07:07:07;;;;;;;8.73;5.23;;;;;;;;;;5120611;27;20878;-70
2022/10/05 07:09:43;;;;;;;15.90;8.73;;;;;;;;;;5118515;28;20449;-70
2022/10/05 07:12:21;;;;;;;5.23;4.00;;;;;;;;;;5117193;28;20497;-69
2022/10/05 07:15:05;;;;;;;7.90;4.10;;;;;;;;;;5115934;28;20462;-70
2022/10/05 07:17:43;;;;;;;6.13;4.70;;;;;;;;;;5121029;27;20920;-70
2022/10/05 07:20:17;;;;;;;10.03;3.60;;;;;;;;;;5130360;27;20494;-70
2022/10/05 07:22:55;;;;;;;7.43;4.20;;;;;;;;;;5117683;28;20472;-70
2022/10/05 07:25:31;;;;;;;12.97;4.30;;;;;;;;;;5129187;28;20456;-71
2022/10/05 07:28:07;;;;;;;10.07;4.13;;;;;;;;;;5120967;27;20462;-71
2022/10/05 07:30:40;;;;;;;6.17;4.03;;;;;;;;;;5131206;27;20488;-70
2022/10/05 07:33:16;;;;;;;8.23;4.80;;;;;;;;;;5117272;28;20467;-70
2022/10/05 07:38:38;;;;;;;8.73;5.13;;;;;;;;;;5119067;28;20558;-70
2022/10/05 07:41:09;;;;;;;7.50;3.97;;;;;;;;;;5128139;27;20461;-70
2022/10/05 07:43:41;;;;;;;12.43;5.47;;;;;;;;;;5122557;27;20634;-70
2022/10/05 07:46:14;;;;;;;5.80;4.30;;;;;;;;;;5116537;28;20473;-70
2022/10/05 07:48:49;;;;;;;6.80;4.80;;;;;;;;;;5134821;27;20455;-71
2022/10/05 07:51:22;;;;;;;6.60;3.70;;;;;;;;;;5134818;27;20507;-70
2022/10/05 07:53:58;;;;;;;5.60;4.57;;;;;;;;;;5135142;27;20683;-71
2022/10/05 07:56:32;;;;;;;7.00;4.23;;;;;;;;;;5124905;27;20484;-70
2022/10/05 07:59:01;;;;;;;4.40;3.80;;;;;;;;;;5117151;28;20457;-71
2022/10/05 08:01:32;;;;;;;8.73;5.20;;;;;;;;;;5120575;27;20463;-71
2022/10/05 08:04:02;;;;;;;8.63;4.93;;;;;;;;;;5115410;28;20456;-73
2022/10/05 08:06:46;;;;;;;8.60;4.47;;;;;;;;;;5117379;28;20492;-71
2022/10/05 08:09:19;;;;;;;25.80;12.33;;;;;;;;;;5125249;27;20946;-70
2022/10/05 08:11:52;;;;;;;8.03;5.30;;;;;;;;;;5136465;27;20592;-72
2022/10/05 08:14:26;;;;;;;7.87;3.60;;;;;;;;;;5135860;27;20461;-73
2022/10/05 08:16:59;;;;;;;7.27;4.57;;;;;;;;;;5131175;27;20904;-72
2022/10/05 08:19:30;;;;;;;9.07;4.30;;;;;;;;;;5121340;28;20458;-71
2022/10/05 08:22:00;;;;;;;10.60;4.37;;;;;;;;;;5126374;27;20469;-74
2022/10/05 08:24:45;;;;;;;9.03;5.43;;;;;;;;;;5133454;27;20502;-73
2022/10/05 08:27:15;;;;;;;8.13;4.60;;;;;;;;;;5134504;27;20467;-71
2022/10/05 08:29:49;;;;;;;12.60;6.50;;;;;;;;;;5119477;28;20462;-72
2022/10/05 08:32:34;;;;;;;10.90;5.00;;;;;;;;;;5126107;28;20978;-72
2022/10/05 08:35:06;;;;;;;6.23;3.50;;;;;;;;;;5120983;27;20904;-73
2022/10/05 08:37:39;;;;;;;5.30;3.60;;;;;;;;;;5114550;28;20463;-72
2022/10/05 08:40:21;;;;;;;7.83;3.60;;;;;;;;;;5114732;28;20456;-71
2022/10/05 08:42:59;;;;;;;6.10;3.63;;;;;;;;;;5114791;28;20465;-71
2022/10/05 08:45:47;;;;;;;7.00;5.00;;;;;;;;;;5126228;27;20460;-71
2022/10/05 08:48:30;;;;;;;8.10;4.87;;;;;;;;;;5115323;28;20467;-72
2022/10/05 08:51:12;;;;;;;8.20;3.77;;;;;;;;;;5125401;27;20489;-72
2022/10/05 08:53:51;;;;;;;9.07;4.90;;;;;;;;;;5127680;27;20461;-71
2022/10/05 08:56:27;;;;;;;7.47;4.33;;;;;;;;;;5118888;28;20843;-71
2022/10/05 08:59:17;;;;;;;5.90;4.20;;;;;;;;;;5126289;27;20755;-72
2022/10/05 09:01:57;;;;;;;6.07;4.27;;;;;;;;;;5124150;27;20486;-73
2022/10/05 09:04:44;;;;;;;6.07;3.60;;;;;;;;;;5118701;27;20466;-72
2022/10/05 09:07:21;;;;;;;8.40;4.27;;;;;;;;;;5123589;28;20493;-72
2022/10/05 09:10:13;;;;;;;5.60;3.67;;;;;;;;;;5114976;27;20454;-72
2022/10/05 09:12:49;;;;;;;5.43;3.33;;;;;;;;;;5115095;28;20534;-72
2022/10/05 09:15:27;;;;;;;5.20;3.40;;;;;;;;;;5113991;28;20463;-71
2022/10/05 09:18:23;;;;;;;10.27;6.13;;;;;;;;;;5112028;28;20438;-72
2022/10/05 09:20:53;;;;;;;5.00;3.70;;;;;;;;;;5116360;28;20498;-70
2022/10/05 09:23:31;;;;;;;7.40;4.37;;;;;;;;;;5116557;28;20910;-70
2022/10/05 09:26:07;;;;;;;6.87;4.33;;;;;;;;;;5121946;28;20462;-73
2022/10/05 09:28:38;;;;;;;7.63;3.30;;;;;;;;;;5129929;27;20462;-72
2022/10/05 09:31:20;;;;;;;9.30;3.80;;;;;;;;;;5124925;27;20620;-72
2022/10/05 09:34:08;;;;;;;9.00;4.30;;;;;;;;;;5109843;28;20457;-71
2022/10/05 09:36:58;;;;;;;10.47;5.30;;;;;;;;;;5125835;27;20462;-70
2022/10/05 09:39:52;;;;;;;7.53;4.33;;;;;;;;;;5114362;28;20542;-72
2022/10/05 09:42:44;;;;;;;13.00;4.87;;;;;;;;;;5122062;28;20457;-71
2022/10/05 09:45:44;;;;;;;5.03;2.90;;;;;;;;;;5119189;27;20998;-71
2022/10/05 09:48:29;;;;;;;7.27;3.23;;;;;;;;;;5117796;28;20458;-71
2022/10/05 09:51:25;;;;;;;9.10;3.77;;;;;;;;;;5121924;27;20470;-71
2022/10/05 09:57:18;;;;;;;5.37;3.23;;;;;;;;;;5118539;27;20907;-71
2022/10/05 10:00:04;;;;;;;11.33;4.10;;;;;;;;;;5123630;27;20455;-71
2022/10/05 10:02:47;;;;;;;6.50;4.10;;;;;;;;;;5112585;28;20553;-72
2022/10/05 10:05:30;;;;;;;5.23;3.50;;;;;;;;;;5115432;27;20450;-72
2022/10/05 10:08:19;;;;;;;9.00;4.37;;;;;;;;;;5112493;28;20470;-73
2022/10/05 10:10:54;;;;;;;7.17;4.60;;;;;;;;;;5106175;28;20498;-71
2022/10/05 10:13:32;;;;;;;6.67;3.63;;;;;;;;;;5115149;28;20461;-71
2022/10/05 10:16:11;;;;;;;8.90;5.43;;;;;;;;;;5122442;27;20557;-73
2022/10/05 10:18:55;;;;;;;6.80;4.50;;;;;;;;;;5120735;27;20540;-71
2022/10/05 10:21:34;;;;;;;7.03;4.00;;;;;;;;;;5130982;27;20869;-69
2022/10/05 10:24:10;;;;;;;9.07;3.80;;;;;;;;;;5111265;27;20477;-70
2022/10/05 10:26:55;;;;;;;7.33;4.13;;;;;;;;;;5116677;27;20474;-70
2022/10/05 10:29:37;;;;;;;7.60;3.67;;;;;;;;;;5116208;27;20553;-74
2022/10/05 10:32:09;;;;;;;8.40;3.60;;;;;;;;;;5117389;27;20486;-71
2022/10/05 10:35:05;;;;;;;10.60;4.00;;;;;;;;;;5131632;27;20948;-70
2022/10/05 10:37:38;;;;;;;6.40;4.13;;;;;;;;;;5043170;28;20512;-71
2022/10/05 10:40:26;;;;;;;6.70;3.80;;;;;;;;;;5099267;28;20486;-71
2022/10/05 10:43:07;;;;;;;7.10;4.57;;;;;;;;;;5122050;27;20466;-70
2022/10/05 10:45:44;;;;;;;5.83;3.80;;;;;;;;;;5115302;28;20552;-71
2022/10/05 10:48:33;;;;;;;6.70;4.00;;;;;;;;;;5120309;27;20537;-70
2022/10/05 10:51:14;;;;;;;8.73;4.87;;;;;;;;;;5114688;28;21775;-71
2022/10/05 10:54:02;;;;;;;5.03;3.80;;;;;;;;;;5114646;28;20469;-72
2022/10/05 10:56:37;;;;;;;5.00;3.70;;;;;;;;;;5114043;28;20463;-71
2022/10/05 10:59:26;;;;;;;8.50;3.17;;;;;;;;;;5117485;28;21077;-71
2022/10/05 11:02:08;;;;;;;6.53;3.50;;;;;;;;;;5103241;28;20894;-72
2022/10/05 11:04:54;;;;;;;9.10;4.47;;;;;;;;;;5125929;27;20520;-71
2022/10/05 11:07:53;;;;;;;7.83;3.53;;;;;;;;;;5116312;28;20502;-73
2022/10/05 11:10:28;;;;;;;5.97;2.80;;;;;;;;;;5098678;27;20482;-72
2022/10/05 11:13:24;;;;;;;5.30;2.83;;;;;;;;;;5119458;27;20465;-73
2022/10/05 11:16:10;;;;;;;4.37;2.87;;;;;;;;;;5126280;27;20458;-72
2022/10/05 11:18:59;;;;;;;5.23;3.40;;;;;;;;;;5123960;28;20493;-71
2022/10/05 11:21:39;;;;;;;6.43;3.20;;;;;;;;;;5124601;27;20784;-71
2022/10/05 11:24:29;;;;;;;4.30;2.80;;;;;;;;;;5114105;28;20461;-73
2022/10/05 11:27:10;;;;;;;4.97;2.53;;;;;;;;;;5116362;27;20501;-72
2022/10/05 11:30:03;;;;;;;4.53;3.00;;;;;;;;;;5108691;28;20497;-71
2022/10/05 11:32:49;;;;;;;3.60;2.00;;;;;;;;;;5114167;27;20482;-71
2022/10/05 11:35:33;;;;;;;4.57;2.00;;;;;;;;;;5111012;27;20449;-70
2022/10/05 11:38:08;;;;;;;5.33;3.67;;;;;;;;;;5120960;27;20453;-71
2022/10/05 11:40:53;;;;;;;9.47;4.80;;;;;;;;;;5124284;28;20461;-70
2022/10/05 11:43:32;;;;;;;7.97;3.63;;;;;;;;;;5117141;27;20544;-72
2022/10/05 11:46:05;;;;;;;7.00;2.60;;;;;;;;;;5118667;28;20740;-74
2022/10/05 11:48:40;;;;;;;11.20;4.33;;;;;;;;;;5117376;27;20466;-71
2022/10/05 11:51:21;;;;;;;4.30;3.43;;;;;;;;;;5121549;27;20648;-73
2022/10/05 11:53:52;;;;;;;5.13;2.80;;;;;;;;;;5121352;28;20545;-72
2022/10/05 11:56:26;;;;;;;4.17;3.10;;;;;;;;;;5116777;28;20514;-73
2022/10/05 11:59:00;;;;;;;8.03;2.60;;;;;;;;;;5122094;28;20523;-74
2022/10/05 12:01:29;;;;;;;4.07;2.90;;;;;;;;;;5122532;28;20454;-72
2022/10/05 12:03:59;;;;;;;8.47;3.10;;;;;;;;;;5123064;27;20527;-73
2022/10/05 12:06:34;;;;;;;4.13;2.83;;;;;;;;;;5114362;28;20905;-72
2022/10/05 12:09:09;;;;;;;6.70;4.27;;;;;;;;;;5126060;27;20536;-70
2022/10/05 12:11:43;;;;;;;4.27;3.17;;;;;;;;;;5129513;27;20481;-71
2022/10/05 12:14:14;;;;;;;7.53;3.70;;;;;;;;;;5132714;27;20461;-70
2022/10/05 12:16:47;;;;;;;6.53;3.53;;;;;;;;;;5123629;28;20553;-71
2022/10/05 12:19:20;;;;;;;3.77;3.37;;;;;;;;;;5115083;28;20491;-71
2022/10/05 12:21:51;;;;;;;3.90;3.00;;;;;;;;;;5125307;27;20558;-71
2022/10/05 12:24:22;;;;;;;4.53;3.40;;;;;;;;;;5129715;27;20549;-71
2022/10/05 12:26:53;;;;;;;5.90;3.23;;;;;;;;;;5133990;27;20522;-71
2022/10/05 12:29:25;;;;;;;3.30;2.57;;;;;;;;;;5126150;27;20533;-71
2022/10/05 12:31:59;;;;;;;4.97;2.40;;;;;;;;;;5134081;27;20485;-70
2022/10/05 12:34:34;;;;;;;3.70;2.70;;;;;;;;;;5126597;27;20605;-71
2022/10/05 12:37:06;;;;;;;4.70;2.87;;;;;;;;;;5114112;28;20545;-70
2022/10/05 12:39:39;;;;;;;3.80;2.70;;;;;;;;;;5117165;28;20462;-71
2022/10/05 12:42:16;;;;;;;3.87;3.03;;;;;;;;;;5123122;28;20749;-70
2022/10/05 12:44:49;;;;;;;4.63;3.30;;;;;;;;;;5131850;27;20467;-71
2022/10/05 12:47:24;;;;;;;4.10;2.80;;;;;;;;;;5124919;28;20467;-71
2022/10/05 12:50:04;;;;;;;4.83;3.10;;;;;;;;;;5127007;27;20513;-71
2022/10/05 12:58:47;;;;;;;3.67;2.77;;;;;;;;;;5116549;28;20528;-73
2022/10/05 13:01:23;;;;;;;3.77;2.70;;;;;;;;;;5121160;27;20456;-72
2022/10/05 13:04:01;;;;;;;3.07;2.30;;;;;;;;;;5135635;27;20453;-71
2022/10/05 13:06:33;;;;;;;8.63;4.10;;;;;;;;;;5134763;27;20464;-71
2022/10/05 13:09:09;;;;;;;3.80;2.47;;;;;;;;;;5134797;27;20854;-71
2022/10/05 13:11:39;;;;;;;5.50;3.60;;;;;;;;;;5134735;27;20474;-70
2022/10/05 13:14:12;;;;;;;7.37;2.90;;;;;;;;;;5129121;27;20552;-71
2022/10/05 13:16:43;;;;;;;4.57;2.93;;;;;;;;;;5131885;27;20450;-71
2022/10/05 13:19:20;;;;;;;7.40;3.70;;;;;;;;;;5129930;27;20446;-71
2022/10/05 13:21:59;;;;;;;4.73;3.43;;;;;;;;;;5129263;27;20540;-71
2022/10/05 13:24:32;;;;;;;5.77;3.60;;;;;;;;;;5126980;27;20540;-71
2022/10/05 13:27:02;;;;;;;8.37;5.00;;;;;;;;;;5122991;27;20439;-71
2022/10/05 13:29:32;;;;;;;5.90;3.60;;;;;;;;;;5123683;28;20472;-72
2022/10/05 13:32:00;;;;;;;8.73;3.57;;;;;;;;;;5134466;27;20477;-72
2022/10/05 13:34:34;;;;;;;5.87;3.17;;;;;;;;;;5127749;27;20447;-72
2022/10/05 13:37:06;;;;;;;7.00;3.57;;;;;;;;;;5124663;27;21074;-72
2022/10/05 13:39:46;;;;;;;4.43;2.70;;;;;;;;;;5122852;27;20583;-72
2022/10/05 13:42:15;;;;;;;5.03;3.03;;;;;;;;;;5126191;28;20525;-70
2022/10/05 13:44:48;;;;;;;3.97;2.40;;;;;;;;;;5131373;27;20474;-71
2022/10/05 13:47:20;;;;;;;4.80;2.50;;;;;;;;;;5112029;28;20530;-70
2022/10/05 13:49:50;;;;;;;6.00;3.13;;;;;;;;;;5113405;28;20977;-70
2022/10/05 13:52:29;;;;;;;3.90;2.40;;;;;;;;;;5123586;28;20493;-71
2022/10/05 13:54:59;;;;;;;3.67;2.27;;;;;;;;;;5113654;28;20490;-71
2022/10/05 13:57:44;;;;;;;4.10;2.53;;;;;;;;;;5114517;28;20469;-70
2022/10/05 14:00:23;;;;;;;3.70;1.97;;;;;;;;;;5118928;28;20757;-71
2022/10/05 14:02:51;;;;;;;3.60;2.20;;;;;;;;;;5133424;27;20774;-70
2022/10/05 14:05:20;;;;;;;3.83;1.93;;;;;;;;;;5132637;27;20446;-71
2022/10/05 14:07:54;;;;;;;3.87;2.13;;;;;;;;;;5123590;27;20449;-72
2022/10/05 14:10:36;;;;;;;6.17;2.77;;;;;;;;;;5111741;28;20446;-71
2022/10/05 14:13:17;;;;;;;5.60;2.97;;;;;;;;;;5112296;28;20497;-70
2022/10/05 14:15:58;;;;;;;5.33;1.77;;;;;;;;;;5115796;28;20480;-71
2022/10/05 14:18:30;;;;;;;3.50;2.30;;;;;;;;;;5118868;27;20486;-71
2022/10/05 14:21:00;;;;;;;5.83;1.57;;;;;;;;;;5117069;28;21096;-71
2022/10/05 14:23:27;;;;;;;4.00;1.87;;;;;;;;;;5126529;27;20451;-71
2022/10/05 14:25:54;;;;;;;3.47;2.10;;;;;;;;;;5118934;27;20478;-72
2022/10/05 14:28:28;;;;;;;10.73;2.10;;;;;;;;;;5118916;28;20482;-71
2022/10/05 14:31:01;;;;;;;3.00;1.50;;;;;;;;;;5113042;28;20473;-72
2022/10/05 14:33:33;;;;;;;4.17;1.73;;;;;;;;;;5122277;28;20470;-71
2022/10/05 14:36:00;;;;;;;4.17;2.03;;;;;;;;;;5117967;27;20435;-72
2022/10/05 14:38:28;;;;;;;2.90;1.80;;;;;;;;;;5126013;27;20457;-71
2022/10/05 14:41:19;;;;;;;5.33;2.00;;;;;;;;;;5133148;27;20493;-72
2022/10/05 14:43:50;;;;;;;6.63;2.30;;;;;;;;;;5099322;28;20455;-72
2022/10/05 14:46:23;;;;;;;3.53;1.70;;;;;;;;;;5121247;27;20464;-71
2022/10/05 14:49:02;;;;;;;4.30;1.70;;;;;;;;;;5131920;27;20542;-71
2022/10/05 14:51:31;;;;;;;2.43;1.70;;;;;;;;;;5114281;28;20781;-72
2022/10/05 14:54:13;;;;;;;3.63;2.07;;;;;;;;;;5111599;28;21116;-71
2022/10/05 14:56:46;;;;;;;3.43;2.00;;;;;;;;;;5111355;28;20465;-71
2022/10/05 14:59:26;;;;;;;7.80;2.50;;;;;;;;;;5115286;28;20869;-69
2022/10/05 15:02:11;;;;;;;4.63;2.43;;;;;;;;;;5130707;27;20458;-71
2022/10/05 15:04:43;;;;;;;4.70;2.30;;;;;;;;;;5113673;28;20450;-71
2022/10/05 15:07:21;;;;;;;4.40;2.37;;;;;;;;;;5114359;27;20458;-71
2022/10/05 15:10:07;;;;;;;2.43;1.70;;;;;;;;;;5116195;28;20896;-71
2022/10/05 15:12:45;;;;;;;5.83;2.10;;;;;;;;;;5115849;27;20482;-71
2022/10/05 15:15:24;;;;;;;3.10;1.93;;;;;;;;;;5114763;28;20455;-70
2022/10/05 15:17:56;;;;;;;7.50;2.20;;;;;;;;;;5123784;28;20446;-71
2022/10/05 15:20:30;;;;;;;5.93;3.90;;;;;;;;;;5114827;28;20465;-71
2022/10/05 15:23:05;;;;;;;2.47;1.60;;;;;;;;;;5116176;28;20821;-71
2022/10/05 15:25:40;;;;;;;6.27;2.70;;;;;;;;;;5125164;27;20829;-71
2022/10/05 15:28:12;;;;;;;8.50;2.33;;;;;;;;;;5125051;27;20461;-71
2022/10/05 15:30:51;;;;;;;21.17;12.87;;;;;;;;;;5130132;27;20741;-71
2022/10/05 15:33:35;;;;;;;4.27;2.23;;;;;;;;;;5135292;27;20560;-71
2022/10/05 15:36:13;;;;;;;5.93;2.27;;;;;;;;;;5135519;27;20995;-72
2022/10/05 15:38:55;;;;;;;3.70;1.87;;;;;;;;;;5123941;27;20461;-71